Time;durP1;ratioP1;P1;durP2;ratioP2;P2;SDS_P1;SDS_P2;PMS_P1;PMS_P2;Temp;Humidity;BMP_temperature;BMP_pressure;BME280_temperature;BME280_humidity;BME280_pressure;Samples;Min_cycle;Max_cycle;Signal;HPM_P1;HPM_P2
2023/04/04 00:01:59;;;;;;;17.58;16.58;;;;;;;12.09;48.23;102832.63;4997106;28;20057;-71
2023/04/04 00:04:26;;;;;;;19.05;18.00;;;;;;;12.07;48.06;102834.72;4998391;28;20541;-71
2023/04/04 00:06:52;;;;;;;17.92;16.83;;;;;;;12.05;48.11;102828.69;4984221;28;20034;-70
2023/04/04 00:09:18;;;;;;;17.98;17.00;;;;;;;12.03;48.14;102833.44;4999126;28;20049;-70
2023/04/04 00:11:44;;;;;;;18.65;17.45;;;;;;;12.02;48.19;102828.22;4989804;28;20129;-72
2023/04/04 00:14:10;;;;;;;17.92;16.92;;;;;;;12.01;48.15;102832.81;4984947;28;20129;-71
2023/04/04 00:16:35;;;;;;;20.33;19.05;;;;;;;11.99;48.15;102834.03;4993723;28;20133;-71
2023/04/04 00:19:01;;;;;;;17.27;16.27;;;;;;;11.98;48.24;102845.94;4985856;28;20036;-71
2023/04/04 00:21:26;;;;;;;17.42;16.42;;;;;;;11.96;48.00;102846.13;4999178;28;20045;-71
2023/04/04 00:23:58;;;;;;;18.35;17.25;;;;;;;11.94;48.21;102850.06;5014389;28;20088;-70
2023/04/04 00:26:25;;;;;;;17.63;16.42;;;;;;;11.93;48.43;102851.94;4987932;28;20421;-73
2023/04/04 00:28:50;;;;;;;18.88;17.23;;;;;;;11.90;48.13;102847.75;4995120;28;20045;-70
2023/04/04 00:31:16;;;;;;;17.65;16.75;;;;;;;11.89;48.14;102840.69;4981360;28;20034;-70
2023/04/04 00:33:41;;;;;;;18.77;17.42;;;;;;;11.88;48.13;102849.00;4975518;28;20039;-74
2023/04/04 00:36:07;;;;;;;18.13;17.05;;;;;;;11.87;48.26;102844.63;4983708;28;20116;-71
2023/04/04 00:38:33;;;;;;;17.67;16.77;;;;;;;11.85;48.27;102849.38;4985765;28;20039;-70
2023/04/04 00:40:58;;;;;;;18.63;17.63;;;;;;;11.83;48.18;102851.44;4986551;28;20767;-71
2023/04/04 00:43:24;;;;;;;16.80;15.90;;;;;;;11.81;48.20;102846.22;4996370;28;20035;-71
2023/04/04 00:45:51;;;;;;;19.48;18.25;;;;;;;11.80;48.09;102847.25;4988277;28;20064;-70
2023/04/04 00:48:17;;;;;;;17.40;16.50;;;;;;;11.78;48.17;102849.31;5005267;28;20457;-70
2023/04/04 00:50:42;;;;;;;18.95;17.85;;;;;;;11.77;48.03;102852.22;5001603;28;20097;-70
2023/04/04 00:53:08;;;;;;;16.77;15.63;;;;;;;11.76;48.28;102853.25;4995463;28;20505;-72
2023/04/04 00:55:37;;;;;;;18.58;16.98;;;;;;;11.74;48.23;102848.03;4985820;28;20062;-71
2023/04/04 00:58:03;;;;;;;17.23;16.20;;;;;;;11.72;48.17;102844.72;4973796;28;20487;-70
2023/04/04 01:00:28;;;;;;;17.65;16.75;;;;;;;11.71;48.20;102851.16;4987961;28;20070;-73
2023/04/04 01:02:54;;;;;;;17.90;16.45;;;;;;;11.69;48.21;102847.81;4994429;28;20486;-70
2023/04/04 01:05:19;;;;;;;17.85;16.90;;;;;;;11.68;48.35;102854.25;5006602;28;20035;-71
2023/04/04 01:07:44;;;;;;;17.33;16.33;;;;;;;11.66;48.15;102846.31;4993551;28;20113;-70
2023/04/04 01:10:11;;;;;;;17.27;16.27;;;;;;;11.64;48.21;102842.16;4999614;28;20043;-70
2023/04/04 01:12:36;;;;;;;16.15;15.25;;;;;;;11.62;48.11;102845.06;4985494;28;20119;-71
2023/04/04 01:15:02;;;;;;;17.70;16.60;;;;;;;11.61;48.20;102839.84;4996814;28;20046;-70
2023/04/04 01:17:28;;;;;;;17.77;16.58;;;;;;;11.59;48.07;102834.66;4982330;28;20026;-72
2023/04/04 01:20:19;;;;;;;17.75;16.65;;;;;;;11.58;48.28;102834.84;5003022;28;20042;-70
2023/04/04 01:22:47;;;;;;;18.73;17.42;;;;;;;11.55;48.31;102824.41;4985731;28;20030;-70
2023/04/04 01:25:13;;;;;;;17.42;16.45;;;;;;;11.53;48.27;102824.59;4974536;28;20475;-71
2023/04/04 01:27:39;;;;;;;16.27;15.27;;;;;;;11.53;48.25;102819.19;4984734;28;20035;-70
2023/04/04 01:30:06;;;;;;;16.77;15.77;;;;;;;11.52;48.18;102822.09;4984982;28;20039;-71
2023/04/04 01:32:35;;;;;;;15.43;14.55;;;;;;;11.50;48.25;102816.03;5004468;28;20120;-70
2023/04/04 01:35:32;;;;;;;15.27;14.48;;;;;;;11.47;48.13;102820.81;4992124;28;20049;-70
2023/04/04 01:38:12;;;;;;;15.82;14.93;;;;;;;11.43;48.23;102818.69;4971348;28;20046;-70
2023/04/04 01:40:42;;;;;;;16.63;15.70;;;;;;;11.41;48.17;102821.59;5005709;28;20018;-75
2023/04/04 01:43:08;;;;;;;17.13;15.93;;;;;;;11.40;48.26;102814.50;4980455;28;20053;-70
2023/04/04 01:45:35;;;;;;;16.70;15.80;;;;;;;11.40;48.18;102816.38;4981847;28;20074;-70
2023/04/04 01:48:00;;;;;;;17.95;16.83;;;;;;;11.39;48.29;102814.69;4989180;28;20037;-71
2023/04/04 01:50:26;;;;;;;16.52;15.63;;;;;;;11.37;48.30;102814.09;4975765;28;20031;-70
2023/04/04 01:52:51;;;;;;;18.48;17.33;;;;;;;11.36;48.36;102815.09;4994153;28;20140;-70
2023/04/04 01:55:17;;;;;;;16.65;15.75;;;;;;;11.33;48.27;102816.34;4998803;28;20085;-72
2023/04/04 01:57:42;;;;;;;17.08;16.05;;;;;;;11.32;48.39;102809.25;4975139;28;20045;-70
2023/04/04 02:00:08;;;;;;;16.00;15.20;;;;;;;11.31;48.28;102809.44;4973640;28;20447;-71
2023/04/04 02:02:34;;;;;;;18.23;16.88;;;;;;;11.29;48.29;102809.66;4979291;28;20482;-70
2023/04/04 02:04:59;;;;;;;15.80;14.90;;;;;;;11.29;48.20;102814.22;4993989;28;20037;-73
2023/04/04 02:07:25;;;;;;;16.50;15.60;;;;;;;11.26;48.32;102807.31;5001019;28;20128;-70
2023/04/04 02:09:50;;;;;;;17.60;16.50;;;;;;;11.24;48.26;102806.72;4983743;28;20068;-70
2023/04/04 02:12:15;;;;;;;16.67;15.77;;;;;;;11.24;48.31;102810.25;4989229;28;20541;-70
2023/04/04 02:14:41;;;;;;;15.52;14.60;;;;;;;11.22;48.32;102806.06;4979608;28;20046;-76
2023/04/04 02:17:06;;;;;;;16.23;15.23;;;;;;;11.21;48.28;102807.06;4992527;28;20177;-70
2023/04/04 02:19:32;;;;;;;17.00;15.77;;;;;;;11.19;48.32;102811.88;4973580;28;20054;-71
2023/04/04 02:21:57;;;;;;;18.83;17.52;;;;;;;11.16;48.29;102813.09;4990653;28;20049;-70
2023/04/04 02:24:23;;;;;;;16.85;15.85;;;;;;;11.16;48.31;102820.34;4986818;28;20526;-70
2023/04/04 02:26:48;;;;;;;17.77;16.77;;;;;;;11.14;48.28;102825.16;5000887;28;20056;-70
2023/04/04 02:29:14;;;;;;;14.93;14.05;;;;;;;11.13;48.23;102828.88;4976673;28;20031;-70
2023/04/04 02:31:39;;;;;;;15.95;15.07;;;;;;;11.10;48.21;102816.56;4989636;28;20505;-70
2023/04/04 02:34:04;;;;;;;17.83;16.83;;;;;;;11.09;48.39;102824.88;4990912;28;20065;-70
2023/04/04 02:36:30;;;;;;;16.25;15.35;;;;;;;11.07;48.23;102830.50;4985529;28;20038;-70
2023/04/04 02:38:55;;;;;;;15.88;14.98;;;;;;;11.06;48.41;102836.91;4958411;28;20050;-70
2023/04/04 02:41:22;;;;;;;15.95;14.98;;;;;;;11.05;48.47;102832.56;4987739;28;20040;-70
2023/04/04 02:43:47;;;;;;;16.17;15.27;;;;;;;11.02;48.48;102822.97;4990974;28;20038;-70
2023/04/04 02:46:12;;;;;;;16.08;15.13;;;;;;;11.01;48.38;102823.13;4989812;28;20030;-72
2023/04/04 02:48:38;;;;;;;15.90;15.02;;;;;;;11.00;48.38;102824.19;4995236;28;20053;-70
2023/04/04 02:51:04;;;;;;;16.88;15.82;;;;;;;10.97;48.30;102817.28;4984562;28;20031;-70
2023/04/04 02:53:29;;;;;;;15.38;14.40;;;;;;;10.96;48.33;102821.03;4979224;28;20039;-70
2023/04/04 02:55:55;;;;;;;17.70;16.48;;;;;;;10.95;48.27;102824.75;4964083;28;20462;-69
2023/04/04 02:58:21;;;;;;;16.77;15.88;;;;;;;10.94;48.23;102817.69;4989010;28;20034;-70
2023/04/04 03:00:53;;;;;;;16.35;15.45;;;;;;;10.92;48.29;102819.75;4995044;28;20505;-70
2023/04/04 03:03:18;;;;;;;16.17;15.27;;;;;;;10.91;48.40;102823.50;4990259;28;20101;-73
2023/04/04 03:05:44;;;;;;;15.95;15.13;;;;;;;10.89;48.31;102824.72;4991505;28;20043;-70
2023/04/04 03:08:09;;;;;;;16.25;15.35;;;;;;;10.87;48.52;102818.66;5005382;28;20026;-70
2023/04/04 03:10:35;;;;;;;16.45;15.55;;;;;;;10.86;48.42;102831.34;4978214;28;20391;-70
2023/04/04 03:13:00;;;;;;;17.83;16.58;;;;;;;10.85;48.25;102828.81;4999768;28;20055;-70
2023/04/04 03:15:26;;;;;;;15.48;14.57;;;;;;;10.82;48.22;102833.59;4987751;28;20113;-72
2023/04/04 03:17:52;;;;;;;17.08;15.82;;;;;;;10.81;48.33;102831.94;4989071;28;20042;-72
2023/04/04 03:20:18;;;;;;;17.77;16.30;;;;;;;10.80;48.25;102830.22;4974425;28;20475;-69
2023/04/04 03:22:43;;;;;;;16.08;15.18;;;;;;;10.79;48.46;102825.88;4984117;28;20081;-70
2023/04/04 03:25:09;;;;;;;16.05;15.15;;;;;;;10.77;48.45;102818.97;4976638;28;20057;-70
2023/04/04 03:27:34;;;;;;;15.30;14.50;;;;;;;10.77;48.26;102821.69;5003480;28;20030;-70
2023/04/04 03:30:00;;;;;;;18.25;16.98;;;;;;;10.75;48.35;102821.03;4990058;28;20040;-71
2023/04/04 03:32:26;;;;;;;14.52;13.73;;;;;;;10.73;48.33;102823.91;4985545;28;20358;-70
2023/04/04 03:34:51;;;;;;;17.25;16.30;;;;;;;10.72;48.54;102811.44;4984875;28;20034;-70
2023/04/04 03:37:17;;;;;;;15.75;14.57;;;;;;;10.71;48.15;102808.94;4998851;28;20038;-69
2023/04/04 03:39:42;;;;;;;15.70;14.80;;;;;;;10.68;48.46;102809.31;4982542;28;20042;-70
2023/04/04 03:42:08;;;;;;;15.40;14.38;;;;;;;10.68;48.25;102809.31;4991325;28;20246;-70
2023/04/04 03:44:33;;;;;;;15.68;14.68;;;;;;;10.66;48.37;102803.25;5009399;28;20462;-70
2023/04/04 03:46:58;;;;;;;17.35;16.23;;;;;;;10.65;48.39;102794.31;4979968;28;20030;-71
2023/04/04 03:49:24;;;;;;;15.52;14.68;;;;;;;10.63;48.39;102792.84;4988023;28;20125;-70
2023/04/04 03:51:49;;;;;;;14.93;14.13;;;;;;;10.61;48.32;102790.34;4984072;28;20037;-71
2023/04/04 03:54:16;;;;;;;14.68;13.77;;;;;;;10.60;48.39;102785.97;4998533;28;20070;-71
2023/04/04 03:56:41;;;;;;;15.43;14.52;;;;;;;10.58;48.36;102778.06;4984999;28;20038;-71
2023/04/04 03:59:07;;;;;;;17.10;16.00;;;;;;;10.58;48.40;102775.34;4983795;28;20089;-71
2023/04/04 04:01:32;;;;;;;16.42;15.50;;;;;;;10.55;48.19;102770.31;4970956;28;20042;-71
2023/04/04 04:03:59;;;;;;;17.42;16.17;;;;;;;10.54;48.46;102775.94;4988880;28;20117;-71
2023/04/04 04:06:25;;;;;;;14.25;13.48;;;;;;;10.52;48.30;102789.63;4986019;28;20042;-71
2023/04/04 04:08:51;;;;;;;15.15;14.27;;;;;;;10.50;48.53;102798.94;4994129;28;20034;-72
2023/04/04 04:11:16;;;;;;;14.32;13.52;;;;;;;10.50;48.45;102799.78;4994322;28;20035;-71
2023/04/04 04:13:42;;;;;;;15.40;14.60;;;;;;;10.47;48.49;102794.75;4995113;28;20374;-73
2023/04/04 04:16:07;;;;;;;16.48;15.43;;;;;;;10.45;48.36;102794.13;4994547;28;20482;-71
2023/04/04 04:18:33;;;;;;;15.02;14.10;;;;;;;10.45;48.48;102796.81;4975859;28;20050;-70
2023/04/04 04:21:00;;;;;;;17.40;16.30;;;;;;;10.44;48.44;102800.56;4990186;28;20096;-70
2023/04/04 04:23:26;;;;;;;15.30;14.32;;;;;;;10.41;48.60;102795.53;4994874;28;20095;-70
2023/04/04 04:25:51;;;;;;;14.95;13.98;;;;;;;10.40;48.37;102799.25;4993871;28;20050;-70
2023/04/04 04:28:16;;;;;;;14.70;13.70;;;;;;;10.38;48.50;102791.38;4986538;28;20388;-71
2023/04/04 04:30:43;;;;;;;15.55;14.65;;;;;;;10.37;48.35;102788.84;4978834;28;20120;-70
2023/04/04 04:33:08;;;;;;;16.27;15.27;;;;;;;10.35;48.50;102786.31;4983698;28;20034;-70
2023/04/04 04:35:38;;;;;;;15.05;14.05;;;;;;;10.34;48.42;102787.34;4975827;28;20042;-70
2023/04/04 04:38:04;;;;;;;16.08;15.07;;;;;;;10.32;48.47;102797.50;4973979;28;20467;-70
2023/04/04 04:40:30;;;;;;;15.02;14.13;;;;;;;10.30;48.44;102794.16;5010707;28;20105;-70
2023/04/04 04:42:55;;;;;;;14.25;13.45;;;;;;;10.29;48.39;102787.09;4991626;28;20533;-73
2023/04/04 04:45:21;;;;;;;15.15;14.25;;;;;;;10.28;48.52;102798.94;4985107;28;20066;-70
2023/04/04 04:47:46;;;;;;;15.15;14.35;;;;;;;10.28;48.42;102798.06;5000905;28;20040;-70
2023/04/04 04:50:11;;;;;;;15.70;14.63;;;;;;;10.25;48.67;102810.06;5007481;28;20026;-70
2023/04/04 04:52:37;;;;;;;14.77;13.98;;;;;;;10.25;48.50;102814.63;4987950;28;20038;-70
2023/04/04 04:55:04;;;;;;;15.90;14.90;;;;;;;10.23;48.47;102819.38;4995708;28;20076;-70
2023/04/04 04:57:30;;;;;;;14.73;13.80;;;;;;;10.21;48.36;102819.59;4993406;28;20391;-70
2023/04/04 04:59:55;;;;;;;14.07;13.27;;;;;;;10.21;48.47;102829.56;4995776;28;20039;-71
2023/04/04 05:02:20;;;;;;;14.82;14.02;;;;;;;10.19;48.70;102818.94;4991138;28;20530;-71
2023/04/04 05:04:46;;;;;;;14.32;13.57;;;;;;;10.17;48.47;102826.38;4998616;28;20058;-71
2023/04/04 05:07:11;;;;;;;16.48;15.38;;;;;;;10.16;48.59;102827.44;4989872;28;20041;-72
2023/04/04 05:09:38;;;;;;;15.85;14.90;;;;;;;10.14;48.52;102824.06;4979209;28;20532;-72
2023/04/04 05:12:03;;;;;;;15.27;14.38;;;;;;;10.13;48.65;102819.69;4998948;28;20054;-72
2023/04/04 05:14:29;;;;;;;15.75;14.85;;;;;;;10.13;48.46;102825.06;5000912;28;20031;-70
2023/04/04 05:16:54;;;;;;;14.45;13.73;;;;;;;10.11;48.58;102832.56;4983611;28;20506;-71
2023/04/04 05:19:19;;;;;;;14.93;13.55;;;;;;;10.09;48.76;102824.63;5008490;28;20050;-71
2023/04/04 05:21:45;;;;;;;16.20;15.07;;;;;;;10.08;48.49;102839.16;4992977;28;20463;-71
2023/04/04 05:24:11;;;;;;;15.88;14.88;;;;;;;10.06;48.56;102833.13;4989336;28;20066;-71
2023/04/04 05:26:36;;;;;;;14.57;13.68;;;;;;;10.05;48.63;102831.41;4986530;28;20081;-71
2023/04/04 05:29:02;;;;;;;14.82;13.98;;;;;;;10.03;48.60;102832.63;5002803;28;20699;-71
2023/04/04 05:31:27;;;;;;;14.45;13.65;;;;;;;10.01;48.43;102832.84;4982205;28;20065;-73
2023/04/04 05:33:53;;;;;;;15.15;14.20;;;;;;;10.01;48.54;102842.81;4995139;28;20511;-71
2023/04/04 05:36:18;;;;;;;17.33;16.20;;;;;;;10.00;48.45;102838.41;5004744;28;20119;-72
2023/04/04 05:38:44;;;;;;;15.18;14.00;;;;;;;9.99;48.86;102839.44;5004231;28;20052;-72
2023/04/04 05:41:09;;;;;;;16.27;15.18;;;;;;;9.96;48.49;102838.78;4989328;28;20031;-71
2023/04/04 05:43:35;;;;;;;14.70;13.80;;;;;;;9.95;48.49;102831.75;5000405;28;20035;-70
2023/04/04 05:46:00;;;;;;;14.05;13.25;;;;;;;9.93;48.67;102828.38;4974024;28;20030;-71
2023/04/04 05:48:26;;;;;;;13.85;12.98;;;;;;;9.92;48.36;102832.09;4977341;28;20034;-70
2023/04/04 05:50:51;;;;;;;14.63;13.73;;;;;;;9.91;48.57;102826.91;4987486;28;20050;-72
2023/04/04 05:53:17;;;;;;;15.75;14.75;;;;;;;9.90;48.53;102822.50;4997760;28;20030;-71
2023/04/04 05:55:42;;;;;;;13.98;13.18;;;;;;;9.89;48.41;102826.22;5009197;28;20490;-72
2023/04/04 05:58:07;;;;;;;16.30;15.10;;;;;;;9.87;48.78;102834.50;4994402;28;20502;-71
2023/04/04 06:00:33;;;;;;;15.10;14.30;;;;;;;9.86;48.47;102827.44;5005442;28;20121;-71
2023/04/04 06:02:58;;;;;;;15.82;14.68;;;;;;;9.84;48.54;102832.19;4994702;28;20426;-70
2023/04/04 06:05:24;;;;;;;13.88;13.07;;;;;;;9.83;48.52;102835.94;4984098;28;20042;-73
2023/04/04 06:07:52;;;;;;;13.45;12.75;;;;;;;9.81;48.39;102824.47;4979923;28;20093;-70
2023/04/04 06:10:17;;;;;;;16.83;15.53;;;;;;;9.79;48.39;102837.31;4991369;28;20034;-73
2023/04/04 06:12:43;;;;;;;14.30;13.48;;;;;;;9.77;48.65;102830.44;4992277;28;20133;-72
2023/04/04 06:15:08;;;;;;;15.88;14.88;;;;;;;9.76;48.48;102837.69;5006420;28;20042;-71
2023/04/04 06:17:34;;;;;;;14.20;13.30;;;;;;;9.76;48.18;102851.19;4993227;28;20533;-72
2023/04/04 06:19:59;;;;;;;15.82;14.77;;;;;;;9.75;48.55;102834.16;4994180;28;20390;-72
2023/04/04 06:22:25;;;;;;;17.45;15.95;;;;;;;9.73;48.38;102843.47;4999646;28;20044;-72
2023/04/04 06:24:50;;;;;;;15.48;13.95;;;;;;;9.72;48.20;102849.88;4988191;28;20514;-73
2023/04/04 06:27:16;;;;;;;15.30;14.30;;;;;;;9.71;48.57;102848.19;4982168;28;20125;-71
2023/04/04 06:29:41;;;;;;;16.05;14.93;;;;;;;9.70;48.50;102846.50;4991825;28;20046;-72
2023/04/04 06:32:07;;;;;;;17.15;15.82;;;;;;;9.69;48.48;102848.38;4973483;28;20031;-72
2023/04/04 06:34:32;;;;;;;15.60;14.40;;;;;;;9.68;48.32;102860.22;4976249;28;20038;-72
2023/04/04 06:36:57;;;;;;;14.57;13.68;;;;;;;9.67;48.18;102854.97;4981873;28;20113;-72
2023/04/04 06:39:23;;;;;;;15.93;14.80;;;;;;;9.65;47.95;102860.59;4975431;28;20038;-72
2023/04/04 06:41:48;;;;;;;15.93;15.02;;;;;;;9.64;48.16;102860.75;4973195;28;20035;-71
2023/04/04 06:44:14;;;;;;;16.80;15.50;;;;;;;9.63;48.26;102859.91;4973185;28;20035;-71
2023/04/04 06:46:40;;;;;;;13.60;12.82;;;;;;;9.62;48.18;102855.53;4988371;28;20034;-71
2023/04/04 06:49:05;;;;;;;14.52;13.68;;;;;;;9.61;48.12;102853.03;4981774;28;20537;-71
2023/04/04 06:51:33;;;;;;;16.52;15.52;;;;;;;9.60;48.02;102862.13;4990718;28;20110;-71
2023/04/04 06:54:00;;;;;;;15.65;14.55;;;;;;;9.59;48.16;102873.97;4979145;28;20033;-71
2023/04/04 06:56:25;;;;;;;17.15;16.02;;;;;;;9.56;48.05;102868.94;4989881;28;20034;-72
2023/04/04 06:58:51;;;;;;;15.48;14.55;;;;;;;9.55;47.85;102868.09;4992029;28;20117;-71
2023/04/04 07:01:16;;;;;;;27.70;16.02;;;;;;;9.54;47.98;102861.84;4988334;28;20114;-71
2023/04/04 07:03:43;;;;;;;15.10;14.15;;;;;;;9.53;48.09;102862.06;4971324;28;20125;-73
2023/04/04 07:06:09;;;;;;;17.13;14.73;;;;;;;9.52;48.10;102858.53;4979298;28;20042;-71
2023/04/04 07:08:34;;;;;;;14.55;13.60;;;;;;;9.52;47.91;102860.34;4974344;28;20085;-70
2023/04/04 07:11:00;;;;;;;15.88;14.50;;;;;;;9.51;47.90;102859.53;4983548;28;20043;-71
2023/04/04 07:13:25;;;;;;;15.85;14.70;;;;;;;9.51;48.07;102866.78;4971948;28;20083;-72
2023/04/04 07:15:51;;;;;;;13.70;12.82;;;;;;;9.49;47.98;102864.25;4972947;28;20050;-72
2023/04/04 07:18:16;;;;;;;16.30;15.18;;;;;;;9.50;47.97;102863.25;4985869;28;20035;-73
2023/04/04 07:20:44;;;;;;;14.25;13.30;;;;;;;9.50;48.04;102868.66;4980812;28;20097;-72
2023/04/04 07:23:10;;;;;;;15.05;14.15;;;;;;;9.51;48.05;102869.47;4978581;28;20356;-72
2023/04/04 07:25:37;;;;;;;14.80;13.80;;;;;;;9.51;48.01;102872.19;4991299;28;20532;-71
2023/04/04 07:28:02;;;;;;;15.95;14.95;;;;;;;9.50;48.30;102870.53;4982204;28;20604;-72
2023/04/04 07:30:29;;;;;;;18.08;16.50;;;;;;;9.51;47.67;102864.09;4981071;28;20582;-72
2023/04/04 07:32:58;;;;;;;16.15;15.02;;;;;;;9.51;47.92;102866.78;4977195;28;20606;-71
2023/04/04 07:35:23;;;;;;;15.30;14.25;;;;;;;9.50;48.04;102860.56;4985784;28;20093;-71
2023/04/04 07:37:49;;;;;;;14.60;13.50;;;;;;;9.51;47.90;102864.91;4991308;28;20437;-73
2023/04/04 07:40:15;;;;;;;14.55;13.57;;;;;;;9.52;47.79;102858.53;4980284;28;20050;-78
2023/04/04 07:42:44;;;;;;;16.08;14.57;;;;;;;9.54;47.66;102858.31;4984326;28;20086;-71
2023/04/04 07:45:12;;;;;;;16.08;14.73;;;;;;;9.53;47.72;102862.88;4993256;28;20194;-71
2023/04/04 07:47:42;;;;;;;15.77;14.60;;;;;;;9.54;47.69;102864.53;4995199;28;20045;-72
2023/04/04 07:50:08;;;;;;;16.48;14.93;;;;;;;9.56;47.65;102863.53;4970504;28;20486;-71
2023/04/04 07:52:33;;;;;;;15.73;14.63;;;;;;;9.56;47.69;102858.97;4991872;28;20038;-72
2023/04/04 07:54:59;;;;;;;15.80;14.50;;;;;;;9.58;47.64;102858.81;4976420;28;20053;-72
2023/04/04 07:57:25;;;;;;;15.63;14.57;;;;;;;9.59;47.86;102858.59;4975059;28;20042;-72
2023/04/04 07:59:50;;;;;;;16.52;15.38;;;;;;;9.61;47.96;102861.13;4986431;28;20046;-72
2023/04/04 08:02:16;;;;;;;14.55;13.68;;;;;;;9.64;47.80;102863.44;4982551;28;20083;-72
2023/04/04 08:04:41;;;;;;;16.13;14.98;;;;;;;9.67;47.96;102852.28;4977700;28;20101;-72
2023/04/04 08:07:06;;;;;;;15.10;14.13;;;;;;;9.68;47.88;102853.97;4985516;28;20027;-72
2023/04/04 08:09:35;;;;;;;15.48;14.48;;;;;;;9.72;47.70;102856.09;4993985;28;20057;-71
2023/04/04 08:12:01;;;;;;;15.55;14.52;;;;;;;9.73;47.82;102857.78;4984786;28;20207;-73
2023/04/04 08:14:27;;;;;;;16.75;15.45;;;;;;;9.77;47.92;102858.25;4990909;28;20034;-73
2023/04/04 08:16:52;;;;;;;15.13;14.23;;;;;;;9.80;47.92;102859.72;4977046;28;20027;-72
2023/04/04 08:19:20;;;;;;;14.35;13.43;;;;;;;9.82;47.77;102863.91;4991842;28;20487;-71
2023/04/04 08:21:46;;;;;;;16.40;15.40;;;;;;;9.84;48.17;102856.47;4976262;28;20376;-72
2023/04/04 08:24:11;;;;;;;14.98;13.95;;;;;;;9.87;48.15;102857.97;4978664;28;20414;-73
2023/04/04 08:26:37;;;;;;;15.43;14.43;;;;;;;9.88;48.32;102857.78;4989387;28;20415;-72
2023/04/04 08:29:02;;;;;;;14.27;13.38;;;;;;;9.93;48.58;102862.66;4988291;28;20525;-73
2023/04/04 08:31:28;;;;;;;15.35;14.35;;;;;;;9.96;48.17;102859.56;4993158;28;20467;-75
2023/04/04 08:33:54;;;;;;;14.05;13.25;;;;;;;9.99;48.55;102859.19;4984522;28;20134;-74
2023/04/04 08:36:20;;;;;;;15.50;14.45;;;;;;;10.02;48.49;102845.31;5012278;28;20045;-77
2023/04/04 08:38:45;;;;;;;15.18;14.18;;;;;;;10.07;48.32;102840.19;5004167;28;20062;-76
2023/04/04 08:41:12;;;;;;;15.95;14.65;;;;;;;10.13;48.39;102843.97;4973911;28;20448;-73
2023/04/04 08:43:40;;;;;;;17.27;16.13;;;;;;;10.19;48.25;102838.69;4974046;28;20118;-72
2023/04/04 08:46:07;;;;;;;15.33;14.17;;;;;;;10.26;48.56;102848.75;4961858;28;20022;-71
2023/04/04 08:48:34;;;;;;;16.05;15.05;;;;;;;10.30;48.29;102852.75;4983400;28;20031;-71
2023/04/04 08:51:03;;;;;;;17.88;13.95;;;;;;;10.34;48.71;102857.59;4956599;28;20038;-73
2023/04/04 08:53:31;;;;;;;16.58;15.48;;;;;;;10.38;48.35;102856.19;4987616;28;20042;-73
2023/04/04 08:55:59;;;;;;;16.25;15.07;;;;;;;10.43;48.55;102858.31;4976781;28;20043;-75
2023/04/04 08:58:25;;;;;;;14.93;14.00;;;;;;;10.46;48.59;102863.34;4973532;28;20030;-71
2023/04/04 09:00:54;;;;;;;17.23;16.13;;;;;;;10.50;48.60;102851.13;4973270;28;20038;-71
2023/04/04 09:03:25;;;;;;;16.60;15.60;;;;;;;10.52;48.80;102854.47;4973860;28;20031;-72
2023/04/04 09:05:52;;;;;;;15.77;14.80;;;;;;;10.54;49.20;102849.72;4990164;28;20060;-72
2023/04/04 09:08:18;;;;;;;15.30;14.40;;;;;;;10.57;49.24;102848.50;4979588;28;20038;-72
2023/04/04 09:10:44;;;;;;;17.42;16.27;;;;;;;10.61;49.16;102842.53;4972697;28;20506;-72
2023/04/04 09:13:10;;;;;;;14.73;13.82;;;;;;;10.64;49.28;102841.31;4973603;28;20174;-72
2023/04/04 09:15:42;;;;;;;17.33;16.10;;;;;;;10.70;48.92;102845.09;4973915;28;20093;-72
2023/04/04 09:18:08;;;;;;;15.02;14.18;;;;;;;10.72;49.12;102849.28;4992501;28;20510;-72
2023/04/04 09:20:44;;;;;;;17.85;16.67;;;;;;;10.75;49.29;102850.78;4991829;28;20034;-76
2023/04/04 09:23:15;;;;;;;15.85;14.30;;;;;;;10.77;49.17;102849.56;4985044;28;20026;-72
2023/04/04 09:25:49;;;;;;;17.30;16.10;;;;;;;10.81;49.02;102840.03;4985048;28;20382;-72
2023/04/04 09:28:15;;;;;;;16.80;15.80;;;;;;;10.84;49.38;102846.91;4991056;28;20416;-73
2023/04/04 09:30:43;;;;;;;17.42;16.27;;;;;;;10.87;49.19;102843.00;4995883;28;20063;-72
2023/04/04 09:33:11;;;;;;;16.58;15.57;;;;;;;10.92;48.91;102843.25;4974661;28;20042;-73
2023/04/04 09:35:45;;;;;;;17.77;16.60;;;;;;;10.93;48.86;102843.03;4989387;28;20642;-72
2023/04/04 09:38:13;;;;;;;16.80;15.90;;;;;;;10.97;48.88;102838.09;4993307;28;20474;-73
2023/04/04 09:40:40;;;;;;;19.52;18.00;;;;;;;10.99;49.28;102839.56;4997291;28;20046;-72
2023/04/04 09:43:07;;;;;;;16.27;15.32;;;;;;;11.04;49.20;102839.00;4992131;28;20032;-72
2023/04/04 09:45:34;;;;;;;20.17;18.42;;;;;;;11.07;49.19;102843.19;4991150;28;20057;-74
2023/04/04 09:48:01;;;;;;;15.70;14.90;;;;;;;11.11;49.55;102839.88;4980857;28;20031;-72
2023/04/04 09:50:29;;;;;;;18.30;17.30;;;;;;;11.13;49.68;102839.69;4980175;28;20046;-73
2023/04/04 09:52:58;;;;;;;15.93;15.02;;;;;;;11.16;49.33;102832.03;4974166;28;20443;-74
2023/04/04 09:55:35;;;;;;;15.88;14.88;;;;;;;11.20;49.42;102832.47;4972669;28;20045;-72
2023/04/04 09:58:14;;;;;;;15.20;14.38;;;;;;;11.22;49.52;102827.72;4987347;28;20030;-73
2023/04/04 10:00:43;;;;;;;18.85;17.67;;;;;;;11.25;49.41;102830.00;4990687;28;20026;-72
2023/04/04 10:03:11;;;;;;;14.93;14.13;;;;;;;11.27;49.61;102826.06;4994242;28;20412;-72
2023/04/04 10:05:36;;;;;;;16.88;15.88;;;;;;;11.29;49.86;102831.31;4970913;28;20031;-72
2023/04/04 10:08:14;;;;;;;17.75;16.73;;;;;;;11.34;50.16;102825.28;4972460;28;20490;-72
2023/04/04 10:10:47;;;;;;;19.42;17.60;;;;;;;11.39;49.75;102828.22;4975658;28;20027;-73
2023/04/04 10:13:12;;;;;;;18.15;16.98;;;;;;;11.41;49.51;102826.16;4983780;28;20055;-73
2023/04/04 10:15:38;;;;;;;18.35;17.15;;;;;;;11.44;49.61;102821.22;4979163;28;20038;-72
2023/04/04 10:18:05;;;;;;;17.30;16.30;;;;;;;11.49;49.78;102823.34;4983957;28;20047;-72
2023/04/04 10:20:32;;;;;;;16.90;15.73;;;;;;;11.52;49.63;102820.22;4980939;28;20035;-72
2023/04/04 10:22:58;;;;;;;16.98;16.08;;;;;;;11.54;50.09;102814.59;4987610;28;20068;-72
2023/04/04 10:25:24;;;;;;;16.90;15.90;;;;;;;11.57;50.16;102825.88;4978845;28;20054;-72
2023/04/04 10:27:50;;;;;;;17.23;16.13;;;;;;;11.62;49.85;102819.88;4974688;28;20031;-72
2023/04/04 10:30:15;;;;;;;16.80;15.75;;;;;;;11.66;49.81;102816.53;4984148;28;20034;-71
2023/04/04 10:33:10;;;;;;;19.15;17.80;;;;;;;11.67;49.53;102815.53;4982126;28;20042;-71
2023/04/04 10:35:39;;;;;;;19.20;17.92;;;;;;;11.69;49.82;102799.94;5001748;28;20038;-71
2023/04/04 10:38:05;;;;;;;16.50;15.60;;;;;;;11.72;49.76;102804.09;4991634;28;20129;-71
2023/04/04 10:40:36;;;;;;;16.25;15.25;;;;;;;11.77;50.13;102806.19;4969944;28;20450;-71
2023/04/04 10:43:03;;;;;;;18.08;17.08;;;;;;;11.81;49.96;102800.19;4973421;28;20031;-71
2023/04/04 10:45:31;;;;;;;16.80;15.82;;;;;;;11.85;49.83;102803.34;4982297;28;20502;-71
2023/04/04 10:47:57;;;;;;;17.38;16.48;;;;;;;11.88;49.93;102802.97;4973110;28;20527;-73
2023/04/04 10:50:23;;;;;;;15.90;15.10;;;;;;;11.91;50.00;102799.84;4974392;28;20037;-72
2023/04/04 10:52:50;;;;;;;18.63;17.42;;;;;;;11.94;50.03;102799.44;4991237;28;20109;-73
2023/04/04 10:55:16;;;;;;;16.42;15.43;;;;;;;11.95;50.37;102801.13;4982378;28;20042;-72
2023/04/04 10:57:45;;;;;;;17.70;16.70;;;;;;;12.01;50.26;102794.06;4977439;28;20513;-72
2023/04/04 11:00:13;;;;;;;17.85;16.40;;;;;;;12.04;50.40;102786.34;4972766;28;20031;-73
2023/04/04 11:02:46;;;;;;;18.95;17.67;;;;;;;12.06;50.17;102781.56;4972597;28;20023;-73
2023/04/04 11:05:18;;;;;;;17.90;16.90;;;;;;;12.08;50.00;102786.81;4983607;28;20105;-71
2023/04/04 11:07:45;;;;;;;19.67;18.38;;;;;;;12.10;50.07;102790.16;4991889;28;20082;-71
2023/04/04 11:10:19;;;;;;;17.85;16.80;;;;;;;12.12;49.96;102779.94;4991972;28;20045;-72